sensor_id;sensor_type;location;lat;lon;timestamp;pressure;altitude;pressure_sealevel;temperature;humidity
49645;BME280;36494;50.730;-1.932;2023-02-14T00:00:46;102610.90;;;5.21;100.00
49645;BME280;36494;50.730;-1.932;2023-02-14T00:03:12;102611.19;;;5.16;100.00
49645;BME280;36494;50.730;-1.932;2023-02-14T00:05:37;102610.35;;;5.13;100.00
49645;BME280;36494;50.730;-1.932;2023-02-14T00:08:02;102606.57;;;5.11;100.00
49645;BME280;36494;50.730;-1.932;2023-02-14T00:10:28;102604.06;;;5.07;100.00
49645;BME280;36494;50.730;-1.932;2023-02-14T00:12:54;102601.35;;;5.04;100.00
49645;BME280;36494;50.730;-1.932;2023-02-14T00:15:20;102600.89;;;5.02;100.00
49645;BME280;36494;50.730;-1.932;2023-02-14T00:17:45;102598.34;;;5.00;100.00
49645;BME280;36494;50.730;-1.932;2023-02-14T00:20:10;102596.00;;;4.99;100.00
49645;BME280;36494;50.730;-1.932;2023-02-14T00:22:35;102595.59;;;4.98;100.00
49645;BME280;36494;50.730;-1.932;2023-02-14T00:25:00;102597.51;;;4.97;100.00
49645;BME280;36494;50.730;-1.932;2023-02-14T00:27:26;102598.50;;;4.96;100.00
49645;BME280;36494;50.730;-1.932;2023-02-14T00:29:52;102598.45;;;4.93;100.00
49645;BME280;36494;50.730;-1.932;2023-02-14T00:32:17;102598.59;;;4.92;100.00
49645;BME280;36494;50.730;-1.932;2023-02-14T00:34:43;102594.32;;;4.91;100.00
49645;BME280;36494;50.730;-1.932;2023-02-14T00:37:08;102594.30;;;4.90;100.00
49645;BME280;36494;50.730;-1.932;2023-02-14T00:39:33;102594.72;;;4.88;100.00
49645;BME280;36494;50.730;-1.932;2023-02-14T00:41:58;102593.97;;;4.87;100.00
49645;BME280;36494;50.730;-1.932;2023-02-14T00:44:24;102596.00;;;4.86;100.00
49645;BME280;36494;50.730;-1.932;2023-02-14T00:46:49;102593.24;;;4.84;100.00
49645;BME280;36494;50.730;-1.932;2023-02-14T00:49:15;102595.67;;;4.83;100.00
49645;BME280;36494;50.730;-1.932;2023-02-14T00:51:40;102594.51;;;4.81;100.00
49645;BME280;36494;50.730;-1.932;2023-02-14T00:54:06;102592.16;;;4.78;100.00
49645;BME280;36494;50.730;-1.932;2023-02-14T00:56:32;102591.52;;;4.73;100.00
49645;BME280;36494;50.730;-1.932;2023-02-14T00:58:56;102589.89;;;4.71;100.00
49645;BME280;36494;50.730;-1.932;2023-02-14T01:01:22;102588.40;;;4.68;100.00
49645;BME280;36494;50.730;-1.932;2023-02-14T01:03:47;102588.00;;;4.66;100.00
49645;BME280;36494;50.730;-1.932;2023-02-14T01:06:13;102588.50;;;4.64;100.00
49645;BME280;36494;50.730;-1.932;2023-02-14T01:08:37;102588.54;;;4.65;100.00
49645;BME280;36494;50.730;-1.932;2023-02-14T01:11:08;102584.97;;;4.63;100.00
49645;BME280;36494;50.730;-1.932;2023-02-14T01:13:28;102585.21;;;4.64;100.00
49645;BME280;36494;50.730;-1.932;2023-02-14T01:15:54;102584.41;;;4.64;100.00
49645;BME280;36494;50.730;-1.932;2023-02-14T01:18:19;102580.72;;;4.66;100.00
49645;BME280;36494;50.730;-1.932;2023-02-14T01:20:45;102583.31;;;4.70;100.00
49645;BME280;36494;50.730;-1.932;2023-02-14T01:23:10;102585.48;;;4.72;100.00
49645;BME280;36494;50.730;-1.932;2023-02-14T01:25:35;102583.57;;;4.75;100.00
49645;BME280;36494;50.730;-1.932;2023-02-14T01:28:01;102581.11;;;4.76;100.00
49645;BME280;36494;50.730;-1.932;2023-02-14T01:30:26;102580.84;;;4.81;100.00
49645;BME280;36494;50.730;-1.932;2023-02-14T01:32:51;102578.86;;;4.81;100.00
49645;BME280;36494;50.730;-1.932;2023-02-14T01:35:17;102578.57;;;4.82;100.00
49645;BME280;36494;50.730;-1.932;2023-02-14T01:37:42;102579.63;;;4.83;100.00
49645;BME280;36494;50.730;-1.932;2023-02-14T01:40:10;102584.45;;;4.83;100.00
49645;BME280;36494;50.730;-1.932;2023-02-14T01:42:33;102587.77;;;4.83;100.00
49645;BME280;36494;50.730;-1.932;2023-02-14T01:45:01;102590.85;;;4.83;100.00
49645;BME280;36494;50.730;-1.932;2023-02-14T01:47:25;102592.60;;;4.82;100.00
49645;BME280;36494;50.730;-1.932;2023-02-14T01:49:52;102591.38;;;4.82;100.00
49645;BME280;36494;50.730;-1.932;2023-02-14T01:52:17;102588.22;;;4.84;100.00
49645;BME280;36494;50.730;-1.932;2023-02-14T01:54:43;102584.34;;;4.83;100.00
49645;BME280;36494;50.730;-1.932;2023-02-14T01:57:09;102586.01;;;4.85;100.00
49645;BME280;36494;50.730;-1.932;2023-02-14T01:59:34;102582.81;;;4.87;100.00
49645;BME280;36494;50.730;-1.932;2023-02-14T02:01:56;102584.83;;;4.88;100.00
49645;BME280;36494;50.730;-1.932;2023-02-14T02:04:23;102585.38;;;4.88;100.00
49645;BME280;36494;50.730;-1.932;2023-02-14T02:06:49;102588.31;;;4.90;100.00
49645;BME280;36494;50.730;-1.932;2023-02-14T02:09:16;102590.55;;;4.95;100.00
49645;BME280;36494;50.730;-1.932;2023-02-14T02:11:38;102591.06;;;5.02;100.00
49645;BME280;36494;50.730;-1.932;2023-02-14T02:14:03;102590.57;;;5.05;100.00
49645;BME280;36494;50.730;-1.932;2023-02-14T02:16:44;102590.37;;;5.08;100.00
49645;BME280;36494;50.730;-1.932;2023-02-14T02:19:06;102590.11;;;5.08;100.00
49645;BME280;36494;50.730;-1.932;2023-02-14T02:21:46;102587.79;;;5.08;100.00
49645;BME280;36494;50.730;-1.932;2023-02-14T02:24:00;102590.29;;;5.10;100.00
49645;BME280;36494;50.730;-1.932;2023-02-14T02:26:31;102589.63;;;5.15;100.00
49645;BME280;36494;50.730;-1.932;2023-02-14T02:31:10;102591.23;;;5.18;100.00
49645;BME280;36494;50.730;-1.932;2023-02-14T02:38:29;102589.27;;;5.30;100.00
49645;BME280;36494;50.730;-1.932;2023-02-14T02:40:48;102590.51;;;5.29;100.00
49645;BME280;36494;50.730;-1.932;2023-02-14T02:43:15;102592.47;;;5.31;100.00
49645;BME280;36494;50.730;-1.932;2023-02-14T02:45:40;102588.18;;;5.30;100.00
49645;BME280;36494;50.730;-1.932;2023-02-14T02:48:04;102586.55;;;5.32;100.00
49645;BME280;36494;50.730;-1.932;2023-02-14T02:50:28;102588.67;;;5.37;100.00
49645;BME280;36494;50.730;-1.932;2023-02-14T02:52:55;102582.90;;;5.40;100.00
49645;BME280;36494;50.730;-1.932;2023-02-14T02:55:19;102580.37;;;5.46;100.00
49645;BME280;36494;50.730;-1.932;2023-02-14T02:57:41;102580.84;;;5.55;100.00
49645;BME280;36494;50.730;-1.932;2023-02-14T03:00:13;102583.51;;;5.54;100.00
49645;BME280;36494;50.730;-1.932;2023-02-14T03:02:35;102582.74;;;5.55;100.00
49645;BME280;36494;50.730;-1.932;2023-02-14T03:05:01;102580.76;;;5.58;100.00
49645;BME280;36494;50.730;-1.932;2023-02-14T03:07:29;102578.70;;;5.59;100.00
49645;BME280;36494;50.730;-1.932;2023-02-14T03:09:51;102579.82;;;5.61;100.00
49645;BME280;36494;50.730;-1.932;2023-02-14T03:12:24;102576.56;;;5.58;100.00
49645;BME280;36494;50.730;-1.932;2023-02-14T03:14:47;102580.52;;;5.60;100.00
49645;BME280;36494;50.730;-1.932;2023-02-14T03:17:12;102580.64;;;5.71;100.00
49645;BME280;36494;50.730;-1.932;2023-02-14T03:19:44;102577.61;;;5.73;100.00
49645;BME280;36494;50.730;-1.932;2023-02-14T03:22:03;102576.68;;;5.69;100.00
49645;BME280;36494;50.730;-1.932;2023-02-14T03:24:26;102576.45;;;5.71;100.00
49645;BME280;36494;50.730;-1.932;2023-02-14T03:26:49;102575.07;;;5.59;100.00
49645;BME280;36494;50.730;-1.932;2023-02-14T03:29:17;102575.56;;;5.58;100.00
49645;BME280;36494;50.730;-1.932;2023-02-14T03:31:45;102576.41;;;5.66;100.00
49645;BME280;36494;50.730;-1.932;2023-02-14T03:34:09;102574.16;;;5.65;100.00
49645;BME280;36494;50.730;-1.932;2023-02-14T03:36:33;102572.16;;;5.61;100.00
49645;BME280;36494;50.730;-1.932;2023-02-14T03:38:58;102567.77;;;5.56;100.00
49645;BME280;36494;50.730;-1.932;2023-02-14T03:41:23;102563.35;;;5.50;100.00
49645;BME280;36494;50.730;-1.932;2023-02-14T03:43:48;102561.27;;;5.46;100.00
49645;BME280;36494;50.730;-1.932;2023-02-14T03:46:14;102561.95;;;5.31;100.00
49645;BME280;36494;50.730;-1.932;2023-02-14T03:48:38;102558.12;;;5.32;100.00
49645;BME280;36494;50.730;-1.932;2023-02-14T03:51:03;102561.58;;;5.34;100.00
49645;BME280;36494;50.730;-1.932;2023-02-14T03:53:30;102559.16;;;5.46;100.00
49645;BME280;36494;50.730;-1.932;2023-02-14T03:55:57;102563.27;;;5.40;100.00
49645;BME280;36494;50.730;-1.932;2023-02-14T03:58:22;102559.37;;;5.31;100.00
49645;BME280;36494;50.730;-1.932;2023-02-14T04:00:46;102560.07;;;5.16;100.00
49645;BME280;36494;50.730;-1.932;2023-02-14T04:03:12;102563.22;;;5.08;100.00
49645;BME280;36494;50.730;-1.932;2023-02-14T04:05:35;102564.77;;;5.14;100.00
49645;BME280;36494;50.730;-1.932;2023-02-14T04:08:00;102564.02;;;5.10;100.00
49645;BME280;36494;50.730;-1.932;2023-02-14T04:10:26;102568.97;;;5.05;100.00
49645;BME280;36494;50.730;-1.932;2023-02-14T04:12:52;102570.31;;;4.97;100.00
49645;BME280;36494;50.730;-1.932;2023-02-14T04:15:17;102570.33;;;4.92;100.00
49645;BME280;36494;50.730;-1.932;2023-02-14T04:17:42;102566.97;;;4.86;100.00
49645;BME280;36494;50.730;-1.932;2023-02-14T04:20:08;102562.81;;;4.79;100.00
49645;BME280;36494;50.730;-1.932;2023-02-14T04:22:32;102558.65;;;4.72;100.00
49645;BME280;36494;50.730;-1.932;2023-02-14T04:24:58;102553.73;;;4.65;100.00
49645;BME280;36494;50.730;-1.932;2023-02-14T04:27:24;102551.21;;;4.58;100.00
49645;BME280;36494;50.730;-1.932;2023-02-14T04:29:50;102547.75;;;4.54;100.00
49645;BME280;36494;50.730;-1.932;2023-02-14T04:32:17;102547.90;;;4.40;100.00
49645;BME280;36494;50.730;-1.932;2023-02-14T04:34:41;102549.52;;;4.35;100.00
49645;BME280;36494;50.730;-1.932;2023-02-14T04:37:07;102549.77;;;4.27;100.00
49645;BME280;36494;50.730;-1.932;2023-02-14T04:39:31;102554.28;;;4.30;100.00
49645;BME280;36494;50.730;-1.932;2023-02-14T04:41:56;102555.55;;;4.32;100.00
49645;BME280;36494;50.730;-1.932;2023-02-14T04:44:22;102558.78;;;4.29;100.00
49645;BME280;36494;50.730;-1.932;2023-02-14T04:46:48;102564.57;;;4.25;100.00
49645;BME280;36494;50.730;-1.932;2023-02-14T04:49:13;102567.42;;;4.19;100.00
49645;BME280;36494;50.730;-1.932;2023-02-14T04:51:38;102567.19;;;4.13;100.00
49645;BME280;36494;50.730;-1.932;2023-02-14T04:54:04;102565.63;;;4.08;100.00
49645;BME280;36494;50.730;-1.932;2023-02-14T04:56:29;102566.94;;;4.06;100.00
49645;BME280;36494;50.730;-1.932;2023-02-14T04:58:55;102569.46;;;4.06;100.00
49645;BME280;36494;50.730;-1.932;2023-02-14T05:01:20;102570.97;;;4.10;100.00
49645;BME280;36494;50.730;-1.932;2023-02-14T05:03:45;102568.87;;;4.08;100.00
49645;BME280;36494;50.730;-1.932;2023-02-14T05:06:11;102569.81;;;4.09;100.00
49645;BME280;36494;50.730;-1.932;2023-02-14T05:08:37;102567.22;;;4.06;100.00
49645;BME280;36494;50.730;-1.932;2023-02-14T05:11:03;102564.84;;;4.06;100.00
49645;BME280;36494;50.730;-1.932;2023-02-14T05:13:29;102567.48;;;4.17;100.00
49645;BME280;36494;50.730;-1.932;2023-02-14T05:15:54;102568.97;;;4.20;100.00
49645;BME280;36494;50.730;-1.932;2023-02-14T05:18:20;102568.47;;;4.20;100.00
49645;BME280;36494;50.730;-1.932;2023-02-14T05:20:48;102571.69;;;4.22;100.00
49645;BME280;36494;50.730;-1.932;2023-02-14T05:23:11;102576.71;;;4.21;100.00
49645;BME280;36494;50.730;-1.932;2023-02-14T05:25:37;102576.68;;;4.22;100.00
49645;BME280;36494;50.730;-1.932;2023-02-14T05:28:02;102574.01;;;4.24;100.00
49645;BME280;36494;50.730;-1.932;2023-02-14T05:30:28;102573.56;;;4.24;100.00
49645;BME280;36494;50.730;-1.932;2023-02-14T05:32:53;102573.08;;;4.26;100.00
49645;BME280;36494;50.730;-1.932;2023-02-14T05:35:19;102578.04;;;4.27;100.00
49645;BME280;36494;50.730;-1.932;2023-02-14T05:37:44;102581.59;;;4.30;100.00
49645;BME280;36494;50.730;-1.932;2023-02-14T05:40:10;102577.11;;;4.32;100.00
49645;BME280;36494;50.730;-1.932;2023-02-14T05:42:35;102574.95;;;4.34;100.00
49645;BME280;36494;50.730;-1.932;2023-02-14T05:45:00;102575.16;;;4.32;100.00
49645;BME280;36494;50.730;-1.932;2023-02-14T05:47:25;102572.85;;;4.34;100.00
49645;BME280;36494;50.730;-1.932;2023-02-14T05:49:51;102575.36;;;4.38;100.00
49645;BME280;36494;50.730;-1.932;2023-02-14T05:52:16;102578.86;;;4.41;100.00
49645;BME280;36494;50.730;-1.932;2023-02-14T05:54:41;102574.40;;;4.44;100.00
49645;BME280;36494;50.730;-1.932;2023-02-14T05:57:07;102572.49;;;4.48;100.00
49645;BME280;36494;50.730;-1.932;2023-02-14T05:59:32;102576.48;;;4.51;100.00
49645;BME280;36494;50.730;-1.932;2023-02-14T06:01:58;102575.56;;;4.53;100.00
49645;BME280;36494;50.730;-1.932;2023-02-14T06:04:23;102573.22;;;4.54;100.00
49645;BME280;36494;50.730;-1.932;2023-02-14T06:06:48;102571.05;;;4.57;100.00
49645;BME280;36494;50.730;-1.932;2023-02-14T06:09:14;102572.34;;;4.60;100.00
49645;BME280;36494;50.730;-1.932;2023-02-14T06:11:39;102576.93;;;4.64;100.00
49645;BME280;36494;50.730;-1.932;2023-02-14T06:14:05;102572.95;;;4.66;100.00
49645;BME280;36494;50.730;-1.932;2023-02-14T06:16:30;102569.45;;;4.70;100.00
49645;BME280;36494;50.730;-1.932;2023-02-14T06:18:56;102567.98;;;4.73;100.00
49645;BME280;36494;50.730;-1.932;2023-02-14T06:21:22;102570.61;;;4.74;100.00
49645;BME280;36494;50.730;-1.932;2023-02-14T06:23:48;102571.63;;;4.76;100.00
49645;BME280;36494;50.730;-1.932;2023-02-14T06:26:13;102579.77;;;4.79;100.00
49645;BME280;36494;50.730;-1.932;2023-02-14T06:28:39;102578.53;;;4.84;100.00
49645;BME280;36494;50.730;-1.932;2023-02-14T06:31:05;102580.77;;;4.87;100.00
49645;BME280;36494;50.730;-1.932;2023-02-14T06:33:30;102581.46;;;4.89;100.00
49645;BME280;36494;50.730;-1.932;2023-02-14T06:35:56;102588.53;;;4.93;100.00
49645;BME280;36494;50.730;-1.932;2023-02-14T06:38:21;102591.68;;;4.93;100.00
49645;BME280;36494;50.730;-1.932;2023-02-14T06:40:47;102592.27;;;4.94;100.00
49645;BME280;36494;50.730;-1.932;2023-02-14T06:43:12;102588.35;;;4.97;100.00
49645;BME280;36494;50.730;-1.932;2023-02-14T06:45:37;102588.41;;;4.98;100.00
49645;BME280;36494;50.730;-1.932;2023-02-14T06:48:03;102587.51;;;5.00;100.00
49645;BME280;36494;50.730;-1.932;2023-02-14T06:50:28;102589.19;;;5.02;100.00
49645;BME280;36494;50.730;-1.932;2023-02-14T06:52:53;102585.59;;;5.04;100.00
49645;BME280;36494;50.730;-1.932;2023-02-14T06:55:19;102583.43;;;5.08;100.00
49645;BME280;36494;50.730;-1.932;2023-02-14T06:57:44;102586.55;;;5.13;100.00
49645;BME280;36494;50.730;-1.932;2023-02-14T07:00:12;102584.72;;;5.16;100.00
49645;BME280;36494;50.730;-1.932;2023-02-14T07:02:35;102585.55;;;5.19;100.00
49645;BME280;36494;50.730;-1.932;2023-02-14T07:05:00;102588.35;;;5.22;100.00
49645;BME280;36494;50.730;-1.932;2023-02-14T07:07:26;102588.90;;;5.26;100.00
49645;BME280;36494;50.730;-1.932;2023-02-14T07:09:51;102592.58;;;5.38;100.00
49645;BME280;36494;50.730;-1.932;2023-02-14T07:12:17;102591.63;;;5.45;100.00
49645;BME280;36494;50.730;-1.932;2023-02-14T07:14:42;102592.90;;;5.59;100.00
49645;BME280;36494;50.730;-1.932;2023-02-14T07:17:08;102594.32;;;5.62;100.00
49645;BME280;36494;50.730;-1.932;2023-02-14T07:19:34;102596.56;;;5.60;100.00
49645;BME280;36494;50.730;-1.932;2023-02-14T07:21:59;102605.63;;;5.69;100.00
49645;BME280;36494;50.730;-1.932;2023-02-14T07:24:24;102607.42;;;5.73;100.00
49645;BME280;36494;50.730;-1.932;2023-02-14T07:26:49;102603.88;;;5.77;100.00
49645;BME280;36494;50.730;-1.932;2023-02-14T07:29:14;102602.18;;;5.78;100.00
49645;BME280;36494;50.730;-1.932;2023-02-14T07:31:40;102604.48;;;5.77;100.00
49645;BME280;36494;50.730;-1.932;2023-02-14T07:34:06;102605.74;;;5.79;100.00
49645;BME280;36494;50.730;-1.932;2023-02-14T07:36:31;102607.39;;;5.81;100.00
49645;BME280;36494;50.730;-1.932;2023-02-14T07:38:57;102610.87;;;5.86;100.00
49645;BME280;36494;50.730;-1.932;2023-02-14T07:41:23;102610.75;;;5.88;100.00
49645;BME280;36494;50.730;-1.932;2023-02-14T07:43:48;102607.99;;;5.92;100.00
49645;BME280;36494;50.730;-1.932;2023-02-14T07:46:13;102607.55;;;5.95;100.00
49645;BME280;36494;50.730;-1.932;2023-02-14T07:48:39;102610.18;;;5.96;100.00
49645;BME280;36494;50.730;-1.932;2023-02-14T07:51:05;102607.47;;;5.97;100.00
49645;BME280;36494;50.730;-1.932;2023-02-14T07:53:30;102604.86;;;5.99;100.00
49645;BME280;36494;50.730;-1.932;2023-02-14T07:55:56;102600.07;;;6.03;100.00
49645;BME280;36494;50.730;-1.932;2023-02-14T07:58:21;102599.97;;;6.08;100.00
49645;BME280;36494;50.730;-1.932;2023-02-14T08:00:46;102598.32;;;6.18;100.00
49645;BME280;36494;50.730;-1.932;2023-02-14T08:03:13;102601.12;;;6.21;100.00
49645;BME280;36494;50.730;-1.932;2023-02-14T08:05:38;102601.42;;;6.22;100.00
49645;BME280;36494;50.730;-1.932;2023-02-14T08:08:03;102604.31;;;6.22;100.00
49645;BME280;36494;50.730;-1.932;2023-02-14T08:10:29;102602.56;;;6.24;100.00
49645;BME280;36494;50.730;-1.932;2023-02-14T08:12:54;102603.81;;;6.26;100.00
49645;BME280;36494;50.730;-1.932;2023-02-14T08:15:20;102602.47;;;6.26;100.00
49645;BME280;36494;50.730;-1.932;2023-02-14T08:17:45;102601.94;;;6.28;100.00
49645;BME280;36494;50.730;-1.932;2023-02-14T08:20:11;102600.98;;;6.28;100.00
49645;BME280;36494;50.730;-1.932;2023-02-14T08:22:36;102598.27;;;6.29;100.00
49645;BME280;36494;50.730;-1.932;2023-02-14T08:25:01;102602.80;;;6.28;100.00
49645;BME280;36494;50.730;-1.932;2023-02-14T08:27:26;102605.19;;;6.29;100.00
49645;BME280;36494;50.730;-1.932;2023-02-14T08:29:51;102605.90;;;6.31;100.00
49645;BME280;36494;50.730;-1.932;2023-02-14T08:32:17;102607.17;;;6.33;100.00
49645;BME280;36494;50.730;-1.932;2023-02-14T08:34:43;102605.36;;;6.32;100.00
49645;BME280;36494;50.730;-1.932;2023-02-14T08:37:08;102610.35;;;6.33;100.00
49645;BME280;36494;50.730;-1.932;2023-02-14T08:39:33;102610.57;;;6.33;100.00
49645;BME280;36494;50.730;-1.932;2023-02-14T08:41:58;102608.68;;;6.35;100.00
49645;BME280;36494;50.730;-1.932;2023-02-14T08:44:24;102603.77;;;6.37;100.00
49645;BME280;36494;50.730;-1.932;2023-02-14T08:46:50;102605.76;;;6.37;100.00
49645;BME280;36494;50.730;-1.932;2023-02-14T08:49:15;102607.83;;;6.39;100.00
49645;BME280;36494;50.730;-1.932;2023-02-14T08:51:41;102608.56;;;6.41;100.00
49645;BME280;36494;50.730;-1.932;2023-02-14T08:54:06;102606.55;;;6.46;100.00
49645;BME280;36494;50.730;-1.932;2023-02-14T08:56:31;102605.16;;;6.47;100.00
49645;BME280;36494;50.730;-1.932;2023-02-14T08:58:57;102606.45;;;6.48;100.00
49645;BME280;36494;50.730;-1.932;2023-02-14T09:01:22;102611.27;;;6.49;100.00
49645;BME280;36494;50.730;-1.932;2023-02-14T09:03:48;102612.22;;;6.55;100.00
49645;BME280;36494;50.730;-1.932;2023-02-14T09:06:15;102609.48;;;6.59;100.00
49645;BME280;36494;50.730;-1.932;2023-02-14T09:08:38;102606.92;;;6.63;100.00
49645;BME280;36494;50.730;-1.932;2023-02-14T09:11:06;102603.70;;;6.66;100.00
49645;BME280;36494;50.730;-1.932;2023-02-14T09:13:29;102604.51;;;6.69;100.00
49645;BME280;36494;50.730;-1.932;2023-02-14T09:15:55;102611.10;;;6.72;100.00
49645;BME280;36494;50.730;-1.932;2023-02-14T09:18:20;102609.96;;;6.75;100.00
49645;BME280;36494;50.730;-1.932;2023-02-14T09:20:45;102602.88;;;6.77;100.00
49645;BME280;36494;50.730;-1.932;2023-02-14T09:23:10;102601.05;;;6.80;100.00
49645;BME280;36494;50.730;-1.932;2023-02-14T09:25:36;102606.22;;;6.84;100.00
49645;BME280;36494;50.730;-1.932;2023-02-14T09:28:01;102608.71;;;6.91;100.00
49645;BME280;36494;50.730;-1.932;2023-02-14T09:30:27;102605.49;;;6.97;100.00
49645;BME280;36494;50.730;-1.932;2023-02-14T09:32:53;102599.80;;;7.02;100.00
49645;BME280;36494;50.730;-1.932;2023-02-14T09:35:18;102595.46;;;7.06;100.00
49645;BME280;36494;50.730;-1.932;2023-02-14T09:37:43;102596.54;;;7.19;100.00
49645;BME280;36494;50.730;-1.932;2023-02-14T09:40:12;102596.62;;;7.32;100.00
49645;BME280;36494;50.730;-1.932;2023-02-14T09:42:40;102593.89;;;7.42;100.00
49645;BME280;36494;50.730;-1.932;2023-02-14T09:45:01;102594.66;;;7.50;100.00
49645;BME280;36494;50.730;-1.932;2023-02-14T09:47:29;102592.90;;;7.60;100.00
49645;BME280;36494;50.730;-1.932;2023-02-14T09:49:51;102590.90;;;7.68;100.00
49645;BME280;36494;50.730;-1.932;2023-02-14T09:52:18;102590.01;;;7.74;100.00
49645;BME280;36494;50.730;-1.932;2023-02-14T09:54:43;102589.48;;;7.82;100.00
49645;BME280;36494;50.730;-1.932;2023-02-14T09:57:10;102589.93;;;7.88;100.00
49645;BME280;36494;50.730;-1.932;2023-02-14T09:59:36;102589.93;;;7.92;100.00
49645;BME280;36494;50.730;-1.932;2023-02-14T10:02:01;102593.20;;;7.98;100.00
49645;BME280;36494;50.730;-1.932;2023-02-14T10:04:26;102591.70;;;8.06;100.00
49645;BME280;36494;50.730;-1.932;2023-02-14T10:06:50;102592.62;;;8.15;100.00
49645;BME280;36494;50.730;-1.932;2023-02-14T10:09:23;102590.55;;;8.22;100.00
49645;BME280;36494;50.730;-1.932;2023-02-14T10:11:39;102590.38;;;8.31;100.00
49645;BME280;36494;50.730;-1.932;2023-02-14T10:14:08;102597.17;;;8.34;100.00
49645;BME280;36494;50.730;-1.932;2023-02-14T10:16:32;102599.10;;;8.44;100.00
49645;BME280;36494;50.730;-1.932;2023-02-14T10:18:58;102600.57;;;8.45;100.00
49645;BME280;36494;50.730;-1.932;2023-02-14T10:21:23;102599.08;;;8.40;100.00
49645;BME280;36494;50.730;-1.932;2023-02-14T10:23:49;102597.43;;;8.42;100.00
49645;BME280;36494;50.730;-1.932;2023-02-14T10:26:15;102596.32;;;8.43;100.00
49645;BME280;36494;50.730;-1.932;2023-02-14T10:28:41;102597.06;;;8.57;100.00
49645;BME280;36494;50.730;-1.932;2023-02-14T10:31:18;102597.37;;;8.57;100.00
49645;BME280;36494;50.730;-1.932;2023-02-14T10:33:29;102602.23;;;8.61;100.00
49645;BME280;36494;50.730;-1.932;2023-02-14T10:35:59;102601.35;;;8.68;100.00
49645;BME280;36494;50.730;-1.932;2023-02-14T10:38:29;102598.89;;;8.72;100.00
49645;BME280;36494;50.730;-1.932;2023-02-14T10:41:01;102596.63;;;8.77;100.00
49645;BME280;36494;50.730;-1.932;2023-02-14T10:43:15;102595.80;;;8.80;100.00
49645;BME280;36494;50.730;-1.932;2023-02-14T10:45:38;102590.35;;;8.87;100.00
49645;BME280;36494;50.730;-1.932;2023-02-14T10:48:06;102587.02;;;8.90;100.00
49645;BME280;36494;50.730;-1.932;2023-02-14T10:50:31;102582.21;;;8.93;100.00
49645;BME280;36494;50.730;-1.932;2023-02-14T10:52:57;102580.84;;;8.99;100.00
49645;BME280;36494;50.730;-1.932;2023-02-14T10:55:21;102580.92;;;9.11;100.00
49645;BME280;36494;50.730;-1.932;2023-02-14T10:57:44;102579.69;;;9.27;100.00
49645;BME280;36494;50.730;-1.932;2023-02-14T11:00:18;102574.59;;;9.49;100.00
49645;BME280;36494;50.730;-1.932;2023-02-14T11:02:35;102567.66;;;9.68;100.00
49645;BME280;36494;50.730;-1.932;2023-02-14T11:05:00;102560.94;;;9.65;100.00
49645;BME280;36494;50.730;-1.932;2023-02-14T11:07:24;102555.79;;;9.90;100.00
49645;BME280;36494;50.730;-1.932;2023-02-14T11:09:49;102554.49;;;10.14;100.00
49645;BME280;36494;50.730;-1.932;2023-02-14T11:14:40;102555.06;;;10.46;100.00
49645;BME280;36494;50.730;-1.932;2023-02-14T11:19:33;102561.00;;;10.80;100.00
49645;BME280;36494;50.730;-1.932;2023-02-14T11:21:57;102557.42;;;10.92;100.00
49645;BME280;36494;50.730;-1.932;2023-02-14T11:24:27;102554.64;;;11.05;100.00
49645;BME280;36494;50.730;-1.932;2023-02-14T11:26:47;102549.19;;;11.07;100.00
49645;BME280;36494;50.730;-1.932;2023-02-14T11:29:14;102546.73;;;11.06;100.00
49645;BME280;36494;50.730;-1.932;2023-02-14T11:31:39;102543.39;;;11.26;100.00
49645;BME280;36494;50.730;-1.932;2023-02-14T11:34:05;102542.45;;;11.53;100.00
49645;BME280;36494;50.730;-1.932;2023-02-14T11:36:28;102540.46;;;11.50;100.00
49645;BME280;36494;50.730;-1.932;2023-02-14T11:38:55;102531.23;;;11.74;100.00
49645;BME280;36494;50.730;-1.932;2023-02-14T11:41:18;102529.23;;;11.98;100.00
49645;BME280;36494;50.730;-1.932;2023-02-14T11:43:44;102526.04;;;12.04;100.00
49645;BME280;36494;50.730;-1.932;2023-02-14T11:46:13;102525.18;;;11.95;100.00
49645;BME280;36494;50.730;-1.932;2023-02-14T11:48:34;102524.67;;;12.59;100.00
49645;BME280;36494;50.730;-1.932;2023-02-14T11:51:01;102525.42;;;12.63;100.00
49645;BME280;36494;50.730;-1.932;2023-02-14T11:53:28;102525.09;;;13.06;100.00
49645;BME280;36494;50.730;-1.932;2023-02-14T11:55:51;102527.17;;;12.51;100.00
49645;BME280;36494;50.730;-1.932;2023-02-14T11:58:27;102520.65;;;12.30;100.00
49645;BME280;36494;50.730;-1.932;2023-02-14T12:00:50;102516.58;;;12.10;100.00
49645;BME280;36494;50.730;-1.932;2023-02-14T12:03:14;102511.51;;;11.70;100.00
49645;BME280;36494;50.730;-1.932;2023-02-14T12:05:34;102514.03;;;11.62;100.00
49645;BME280;36494;50.730;-1.932;2023-02-14T12:07:58;102514.05;;;11.77;100.00
49645;BME280;36494;50.730;-1.932;2023-02-14T12:10:24;102506.79;;;11.79;100.00
49645;BME280;36494;50.730;-1.932;2023-02-14T12:12:53;102501.44;;;11.48;100.00
49645;BME280;36494;50.730;-1.932;2023-02-14T12:15:22;102496.95;;;11.45;100.00
49645;BME280;36494;50.730;-1.932;2023-02-14T12:17:39;102493.68;;;11.35;100.00
49645;BME280;36494;50.730;-1.932;2023-02-14T12:20:10;102493.84;;;11.52;100.00
49645;BME280;36494;50.730;-1.932;2023-02-14T12:22:34;102492.97;;;11.41;100.00
49645;BME280;36494;50.730;-1.932;2023-02-14T12:25:02;102493.86;;;11.29;100.00
49645;BME280;36494;50.730;-1.932;2023-02-14T12:27:23;102491.28;;;11.60;100.00
49645;BME280;36494;50.730;-1.932;2023-02-14T12:29:49;102487.61;;;12.02;100.00
49645;BME280;36494;50.730;-1.932;2023-02-14T12:32:18;102483.31;;;12.31;100.00
49645;BME280;36494;50.730;-1.932;2023-02-14T12:34:36;102483.45;;;12.34;100.00
49645;BME280;36494;50.730;-1.932;2023-02-14T12:37:16;102481.55;;;12.30;100.00
49645;BME280;36494;50.730;-1.932;2023-02-14T12:39:34;102477.69;;;12.19;100.00